createdAt,value
2023-01-27T08:42:00.625Z,15.05
2023-01-27T08:44:31.629Z,11.27
2023-01-27T08:46:58.555Z,11.23
2023-01-27T08:49:25.449Z,10.00
2023-01-27T08:51:52.380Z,7.90
2023-01-27T08:54:19.207Z,6.35
2023-01-27T08:56:46.129Z,7.43
2023-01-27T08:59:14.559Z,7.47
2023-01-27T09:01:41.948Z,6.43
2023-01-27T09:04:08.873Z,4.50
2023-01-27T09:06:35.728Z,5.53
2023-01-27T09:09:12.409Z,5.88
2023-01-27T09:11:45.054Z,4.25
2023-01-27T09:14:12.554Z,3.63
2023-01-27T09:16:39.705Z,4.72
2023-01-27T09:19:06.506Z,6.72
2023-01-27T09:21:33.391Z,4.05
2023-01-27T09:24:00.256Z,4.78
2023-01-27T09:26:27.258Z,2.67
2023-01-27T09:28:54.071Z,4.20
2023-01-27T09:31:20.945Z,4.68
2023-01-27T09:33:47.872Z,4.25
2023-01-27T09:36:18.961Z,5.22
2023-01-27T09:38:50.994Z,3.95
2023-01-27T09:41:50.356Z,4.18
2023-01-27T09:44:42.859Z,3.88
2023-01-27T09:47:24.816Z,4.53
2023-01-27T09:50:29.300Z,2.95
2023-01-27T09:53:20.008Z,3.85
2023-01-27T09:56:12.338Z,3.08
2023-01-27T09:59:05.080Z,4.03
2023-01-27T10:02:02.025Z,3.72
2023-01-27T10:04:48.387Z,3.83
2023-01-27T10:07:43.873Z,3.40
2023-01-27T10:10:24.566Z,3.95
2023-01-27T10:13:03.456Z,4.20
2023-01-27T10:15:37.218Z,2.45
2023-01-27T10:18:17.836Z,3.35
2023-01-27T10:21:00.983Z,1.70
2023-01-27T10:24:01.055Z,3.08
2023-01-27T10:27:01.525Z,2.53
2023-01-27T10:29:36.459Z,2.42
2023-01-27T10:32:31.103Z,2.33
2023-01-27T10:35:17.248Z,2.20
2023-01-27T10:38:13.870Z,2.92
2023-01-27T10:40:58.553Z,3.05
2023-01-27T10:43:50.100Z,2.47
2023-01-27T10:46:51.417Z,2.63
2023-01-27T10:49:36.499Z,2.95
2023-01-27T10:52:18.433Z,3.10
2023-01-27T10:54:58.999Z,2.95
2023-01-27T10:57:34.894Z,2.92
2023-01-27T11:01:18.182Z,2.53
2023-01-27T11:03:43.790Z,3.13
2023-01-27T11:06:16.337Z,3.00
2023-01-27T11:08:47.831Z,2.40
2023-01-27T11:11:40.412Z,2.97
2023-01-27T11:14:32.544Z,2.55
2023-01-27T11:20:00.264Z,2.42
2023-01-27T11:22:35.350Z,3.35
2023-01-27T11:25:05.201Z,2.67
2023-01-27T11:27:48.719Z,2.55
2023-01-27T11:30:25.468Z,2.70
2023-01-27T11:33:25.521Z,2.40
2023-01-27T11:35:53.936Z,2.08
2023-01-27T11:38:23.061Z,1.92
2023-01-27T11:40:52.604Z,2.20
2023-01-27T11:43:25.511Z,2.38
2023-01-27T11:46:05.778Z,2.22
2023-01-27T11:48:41.169Z,2.40
2023-01-27T11:51:21.519Z,1.65
2023-01-27T11:53:55.647Z,2.00
2023-01-27T11:56:24.383Z,2.47
2023-01-27T11:59:06.289Z,2.05
2023-01-27T12:01:48.267Z,1.98
2023-01-27T12:04:57.720Z,2.35
2023-01-27T12:07:39.700Z,1.92
2023-01-27T12:10:37.994Z,2.28
2023-01-27T12:13:25.483Z,3.13
2023-01-27T12:18:25.733Z,1.85
2023-01-27T12:21:04.536Z,2.28
2023-01-27T12:23:37.983Z,2.67
2023-01-27T12:26:07.810Z,2.83
2023-01-27T12:28:49.508Z,3.30
2023-01-27T12:31:31.602Z,2.92
2023-01-27T12:34:03.799Z,2.78
2023-01-27T12:36:39.026Z,2.50
2023-01-27T12:39:07.681Z,1.95
2023-01-27T12:41:37.868Z,1.83
2023-01-27T12:44:16.336Z,1.92
2023-01-27T12:46:59.823Z,1.65
2023-01-27T12:49:35.772Z,1.67
2023-01-27T12:52:05.175Z,2.00
2023-01-27T12:54:32.906Z,1.98
2023-01-27T12:57:06.826Z,2.15
2023-01-27T12:59:35.689Z,1.73
2023-01-27T13:02:31.049Z,1.52
2023-01-27T13:05:01.154Z,1.50
2023-01-27T13:08:01.826Z,1.83
2023-01-27T13:10:29.063Z,1.63
2023-01-27T13:12:58.882Z,1.65
2023-01-27T13:15:31.820Z,1.00
2023-01-27T13:18:02.748Z,1.48
2023-01-27T13:20:43.599Z,1.70
2023-01-27T13:23:27.454Z,1.40
2023-01-27T13:26:15.430Z,2.33
2023-01-27T13:29:23.598Z,2.00
2023-01-27T13:31:59.486Z,1.33
2023-01-27T13:34:34.735Z,1.35
2023-01-27T13:37:14.742Z,1.60
2023-01-27T13:40:04.084Z,1.95
2023-01-27T13:42:51.846Z,1.23
2023-01-27T13:45:29.081Z,1.45
2023-01-27T13:48:01.915Z,1.15
2023-01-27T13:50:44.597Z,2.33
2023-01-27T13:53:17.653Z,1.67
2023-01-27T13:56:09.737Z,2.00
2023-01-27T13:59:00.281Z,1.77
2023-01-27T14:01:43.661Z,1.50
2023-01-27T14:04:13.501Z,1.00
2023-01-27T14:07:14.081Z,1.27
2023-01-27T14:10:02.006Z,1.27
2023-01-27T14:12:42.797Z,0.82
2023-01-27T14:15:15.794Z,1.63
2023-01-27T14:17:48.666Z,1.38
2023-01-27T14:20:24.893Z,1.17
2023-01-27T14:23:17.763Z,0.85
2023-01-27T14:25:55.837Z,1.58
2023-01-27T14:28:46.369Z,1.33
2023-01-27T14:31:19.245Z,1.00
2023-01-27T14:34:16.002Z,0.88
2023-01-27T14:36:55.476Z,1.08
2023-01-27T14:39:41.149Z,1.08
2023-01-27T14:42:27.780Z,1.70
2023-01-27T14:45:07.315Z,1.03
2023-01-27T14:47:53.403Z,0.60
2023-01-27T14:50:22.951Z,1.45
2023-01-27T14:53:07.752Z,1.30
2023-01-27T14:55:45.083Z,0.90
2023-01-27T14:58:23.834Z,1.13
2023-01-27T15:01:05.555Z,0.80
2023-01-27T15:04:05.232Z,0.43
2023-01-27T15:06:58.411Z,0.80
2023-01-27T15:09:41.721Z,1.40
2023-01-27T15:12:33.194Z,1.05
2023-01-27T15:15:24.887Z,0.82
2023-01-27T15:18:19.534Z,1.40
2023-01-27T15:21:03.279Z,1.30
2023-01-27T15:23:50.050Z,1.17
2023-01-27T15:26:22.735Z,0.80
2023-01-27T15:28:49.884Z,1.10
2023-01-27T15:31:17.096Z,0.88
2023-01-27T15:33:56.197Z,1.02
2023-01-27T15:36:32.007Z,0.70
2023-01-27T15:39:21.998Z,1.45
2023-01-27T15:42:02.079Z,0.75
2023-01-27T15:44:31.746Z,1.27
2023-01-27T15:47:21.860Z,1.00
2023-01-27T15:50:02.700Z,1.50
2023-01-27T15:52:33.567Z,1.80
2023-01-27T15:55:04.983Z,1.20
2023-01-27T15:57:40.819Z,1.40
2023-01-27T16:00:22.488Z,0.85
2023-01-27T16:02:53.485Z,1.23
2023-01-27T16:05:52.146Z,0.75
2023-01-27T16:08:20.144Z,1.10
2023-01-27T16:10:49.757Z,1.45
2023-01-27T16:13:29.414Z,0.98
2023-01-27T16:16:18.056Z,1.30
2023-01-27T16:18:50.979Z,1.00
2023-01-27T16:21:53.616Z,1.05
2023-01-27T16:24:42.646Z,0.82
2023-01-27T16:27:47.472Z,1.13
2023-01-27T16:30:22.831Z,1.40
2023-01-27T16:33:06.805Z,0.70
2023-01-27T16:35:56.014Z,1.08
2023-01-27T16:38:33.175Z,0.80
2023-01-27T16:41:18.548Z,1.15
2023-01-27T16:43:55.396Z,0.80
2023-01-27T16:47:05.128Z,0.90
2023-01-27T16:49:41.471Z,1.00
2023-01-27T16:52:29.429Z,1.20
2023-01-27T16:55:11.080Z,1.10
2023-01-27T16:57:45.310Z,1.63
